createdAt,value
2022-07-29T00:01:03.853Z,54.03
2022-07-29T00:03:30.520Z,55.22
2022-07-29T00:05:57.168Z,55.49
2022-07-29T00:08:23.893Z,57.70
2022-07-29T00:10:51.955Z,57.86
2022-07-29T00:13:18.585Z,56.68
2022-07-29T00:15:58.943Z,57.25
2022-07-29T00:18:31.273Z,56.55
2022-07-29T00:20:57.942Z,56.13
2022-07-29T00:23:24.534Z,56.48
2022-07-29T00:25:51.156Z,57.16
2022-07-29T00:28:17.720Z,56.70
2022-07-29T00:30:44.378Z,57.16
2022-07-29T00:33:11.041Z,56.77
2022-07-29T00:35:47.109Z,55.75
2022-07-29T00:38:15.589Z,55.89
2022-07-29T00:40:43.287Z,56.63
2022-07-29T00:43:11.393Z,56.38
2022-07-29T00:45:38.045Z,56.77
2022-07-29T00:48:05.826Z,56.90
2022-07-29T00:50:33.928Z,56.90
2022-07-29T00:53:01.082Z,58.37
2022-07-29T00:55:27.941Z,58.01
2022-07-29T00:57:54.735Z,59.04
2022-07-29T01:00:24.340Z,59.00
2022-07-29T01:02:51.630Z,58.77
2022-07-29T01:05:20.525Z,57.93
2022-07-29T01:07:49.485Z,57.46
2022-07-29T01:10:17.438Z,56.96
2022-07-29T01:12:45.687Z,56.73
2022-07-29T01:15:12.628Z,56.11
2022-07-29T01:17:52.582Z,56.46
2022-07-29T01:21:01.446Z,55.98
2022-07-29T01:23:37.439Z,56.31
2022-07-29T01:26:30.038Z,56.46
2022-07-29T01:29:09.801Z,56.56
2022-07-29T01:31:59.805Z,56.62
2022-07-29T01:34:51.388Z,56.31
2022-07-29T01:37:26.561Z,56.48
2022-07-29T01:39:56.992Z,57.08
2022-07-29T01:42:31.519Z,57.25
2022-07-29T01:45:10.276Z,56.55
2022-07-29T01:48:01.661Z,56.55
2022-07-29T01:50:35.462Z,56.24
2022-07-29T01:53:05.632Z,56.04
2022-07-29T01:55:39.409Z,55.40
2022-07-29T01:58:07.931Z,55.80
2022-07-29T02:00:35.683Z,55.71
2022-07-29T02:03:08.314Z,55.89
2022-07-29T02:05:36.805Z,55.12
2022-07-29T02:08:06.039Z,56.06
2022-07-29T02:10:34.811Z,55.81
2022-07-29T02:13:03.048Z,55.82
2022-07-29T02:15:33.016Z,55.77
2022-07-29T02:18:04.898Z,56.50
2022-07-29T02:20:31.934Z,55.05
2022-07-29T02:23:00.509Z,55.22
2022-07-29T02:25:38.060Z,55.40
2022-07-29T02:28:07.262Z,57.21
2022-07-29T02:30:37.629Z,56.09
2022-07-29T02:33:05.900Z,55.77
2022-07-29T02:35:34.574Z,55.30
2022-07-29T02:38:21.916Z,56.38
2022-07-29T02:40:50.829Z,56.84
2022-07-29T02:43:19.665Z,56.03
2022-07-29T02:45:52.541Z,56.41
2022-07-29T02:48:23.468Z,56.28
2022-07-29T02:50:56.621Z,55.71
2022-07-29T02:53:28.087Z,55.96
2022-07-29T02:56:01.592Z,55.56
2022-07-29T02:58:41.820Z,57.05
2022-07-29T03:01:21.324Z,56.66
2022-07-29T03:03:51.615Z,55.51
2022-07-29T03:06:37.767Z,56.63
2022-07-29T03:09:12.557Z,56.33
2022-07-29T03:11:49.320Z,55.72
2022-07-29T03:14:19.123Z,56.22
2022-07-29T03:16:46.177Z,56.36
2022-07-29T03:19:13.271Z,56.00
2022-07-29T03:21:40.042Z,56.33
2022-07-29T03:24:10.504Z,56.69
2022-07-29T03:26:37.962Z,57.47
2022-07-29T03:29:04.570Z,57.60
2022-07-29T03:31:32.140Z,56.82
2022-07-29T03:34:00.302Z,57.17
2022-07-29T03:36:27.046Z,56.64
2022-07-29T03:38:54.237Z,56.20
2022-07-29T03:41:23.661Z,55.60
2022-07-29T03:43:52.764Z,55.21
2022-07-29T03:46:23.776Z,56.57
2022-07-29T03:48:57.374Z,56.58
2022-07-29T03:51:33.470Z,55.67
2022-07-29T03:54:09.676Z,54.91
2022-07-29T03:56:43.048Z,54.76
2022-07-29T03:59:12.187Z,54.60
2022-07-29T04:01:40.030Z,54.49
2022-07-29T04:04:06.856Z,54.02
2022-07-29T04:06:44.861Z,54.14
2022-07-29T04:09:12.997Z,53.99
2022-07-29T04:12:03.511Z,54.09
2022-07-29T04:14:27.928Z,54.03
2022-07-29T04:16:54.525Z,53.96
2022-07-29T04:19:21.169Z,54.36
2022-07-29T04:21:47.962Z,54.40
2022-07-29T04:24:14.968Z,54.46
2022-07-29T04:26:41.761Z,54.65
2022-07-29T04:29:08.467Z,54.49
2022-07-29T04:31:35.288Z,54.49
2022-07-29T04:34:02.004Z,54.41
2022-07-29T04:36:29.947Z,54.54
2022-07-29T04:38:57.071Z,54.79
2022-07-29T04:41:23.730Z,54.90
2022-07-29T04:44:01.973Z,55.40
2022-07-29T04:46:28.917Z,56.47
2022-07-29T04:48:55.744Z,57.37
2022-07-29T04:51:22.476Z,59.13
2022-07-29T04:53:49.289Z,58.33
2022-07-29T04:56:16.017Z,57.83
2022-07-29T04:58:42.842Z,58.21
2022-07-29T05:01:09.506Z,57.91
2022-07-29T05:03:36.134Z,57.54
2022-07-29T05:06:02.811Z,56.70
2022-07-29T05:08:29.592Z,56.94
2022-07-29T05:10:56.512Z,56.63
2022-07-29T05:13:23.082Z,57.33
2022-07-29T05:15:49.890Z,57.71
2022-07-29T05:18:16.743Z,57.30
2022-07-29T05:20:43.356Z,56.75
2022-07-29T05:23:10.026Z,56.64
2022-07-29T05:25:43.070Z,56.63
2022-07-29T05:28:10.710Z,56.46
2022-07-29T05:30:37.347Z,56.21
2022-07-29T05:33:04.206Z,55.87
2022-07-29T05:35:31.153Z,55.89
2022-07-29T05:37:57.958Z,56.20
2022-07-29T05:40:24.585Z,55.68
2022-07-29T05:42:51.190Z,56.54
2022-07-29T05:45:17.789Z,55.54
2022-07-29T05:47:44.705Z,55.35
2022-07-29T05:50:11.492Z,55.08
2022-07-29T05:52:38.121Z,55.36
2022-07-29T05:55:06.629Z,55.52
2022-07-29T05:57:33.559Z,56.08
2022-07-29T06:00:00.614Z,56.26
2022-07-29T06:02:27.355Z,55.32
2022-07-29T06:04:54.754Z,55.09
2022-07-29T06:07:21.820Z,55.31
2022-07-29T06:09:48.435Z,55.34
2022-07-29T06:12:15.396Z,54.92
2022-07-29T06:14:42.060Z,54.54
2022-07-29T06:17:08.678Z,55.13
2022-07-29T06:19:37.200Z,54.84
2022-07-29T06:22:03.901Z,55.50
2022-07-29T06:24:30.494Z,55.48
2022-07-29T06:26:57.065Z,55.87
2022-07-29T06:29:23.762Z,57.31
2022-07-29T06:31:50.363Z,56.83
2022-07-29T06:34:17.462Z,55.93
2022-07-29T06:36:44.547Z,55.46
2022-07-29T06:39:12.584Z,55.59
2022-07-29T06:41:39.171Z,54.98
2022-07-29T06:44:10.089Z,55.06
2022-07-29T06:46:37.518Z,55.82
2022-07-29T06:49:05.436Z,55.29
2022-07-29T06:51:32.126Z,55.71
2022-07-29T06:54:03.385Z,54.97
2022-07-29T06:56:46.387Z,54.74
2022-07-29T06:59:13.957Z,55.94
2022-07-29T07:01:43.272Z,55.91
2022-07-29T07:04:10.681Z,57.80
2022-07-29T07:06:37.852Z,58.87
2022-07-29T07:09:04.965Z,58.46
2022-07-29T07:11:31.776Z,58.29
2022-07-29T07:14:03.088Z,59.18
2022-07-29T07:16:30.471Z,58.56
2022-07-29T07:18:57.115Z,58.33
2022-07-29T07:21:23.767Z,58.55
2022-07-29T07:23:50.457Z,58.77
2022-07-29T07:26:17.113Z,58.09
2022-07-29T07:28:43.735Z,56.86
2022-07-29T07:31:10.649Z,56.25
2022-07-29T07:33:37.304Z,56.83
2022-07-29T07:36:04.167Z,57.13
2022-07-29T07:38:30.753Z,57.43
2022-07-29T07:40:57.451Z,58.45
2022-07-29T07:43:24.137Z,57.69
2022-07-29T07:45:50.800Z,57.23
2022-07-29T07:48:17.709Z,56.32
2022-07-29T07:50:44.771Z,56.57
2022-07-29T07:53:11.705Z,56.22
2022-07-29T07:56:09.377Z,57.56
2022-07-29T07:58:31.820Z,55.67
2022-07-29T08:00:58.633Z,55.86
2022-07-29T08:03:25.271Z,55.37
2022-07-29T08:05:52.833Z,55.19
2022-07-29T08:08:19.560Z,55.15
2022-07-29T08:10:56.775Z,54.12
2022-07-29T08:13:26.516Z,54.09
2022-07-29T08:15:58.898Z,53.02
2022-07-29T08:18:27.621Z,52.97
2022-07-29T08:20:54.513Z,52.85
2022-07-29T08:23:21.539Z,53.17
2022-07-29T08:25:50.350Z,53.26
2022-07-29T08:28:18.041Z,52.47
2022-07-29T08:30:45.898Z,53.87
2022-07-29T08:33:12.605Z,53.38
2022-07-29T08:35:39.942Z,53.13
2022-07-29T08:38:06.554Z,52.85
2022-07-29T08:40:33.256Z,54.08
2022-07-29T08:43:05.067Z,53.62
2022-07-29T08:45:47.960Z,54.10
2022-07-29T08:48:21.133Z,53.23
2022-07-29T08:50:50.905Z,52.76
2022-07-29T08:53:18.957Z,53.32
2022-07-29T08:55:47.610Z,52.55
2022-07-29T08:58:15.904Z,53.55
2022-07-29T09:00:46.315Z,52.86
2022-07-29T09:03:16.604Z,51.42
2022-07-29T09:05:48.078Z,50.94
2022-07-29T09:08:16.381Z,52.12
2022-07-29T09:10:43.813Z,51.84
2022-07-29T09:13:10.508Z,51.27
2022-07-29T09:15:37.153Z,50.71
2022-07-29T09:18:03.786Z,50.64
2022-07-29T09:20:50.369Z,50.51
2022-07-29T09:23:23.430Z,50.05
2022-07-29T09:25:51.551Z,50.22
2022-07-29T09:28:19.132Z,50.01
2022-07-29T09:30:59.300Z,49.63
2022-07-29T09:33:35.407Z,49.66
2022-07-29T09:36:07.368Z,49.73
2022-07-29T09:38:35.429Z,49.05
2022-07-29T09:41:05.737Z,49.26
2022-07-29T09:43:33.474Z,49.25
2022-07-29T09:46:15.692Z,49.24
2022-07-29T09:48:42.484Z,48.11
2022-07-29T09:51:21.533Z,47.80
2022-07-29T09:53:51.301Z,47.60
2022-07-29T09:56:19.705Z,47.54
2022-07-29T09:58:46.332Z,47.58
2022-07-29T10:01:13.481Z,47.35
2022-07-29T10:03:53.590Z,47.06
2022-07-29T10:06:20.272Z,47.30
2022-07-29T10:08:47.666Z,47.26
2022-07-29T10:11:16.680Z,47.26
2022-07-29T10:13:46.979Z,47.81
2022-07-29T10:16:15.407Z,46.98
2022-07-29T10:18:43.343Z,46.97
2022-07-29T10:21:11.089Z,47.58
2022-07-29T10:23:50.229Z,47.10
2022-07-29T10:26:17.705Z,46.94
2022-07-29T10:28:44.321Z,47.36
2022-07-29T10:31:27.067Z,47.83
2022-07-29T10:34:14.655Z,46.92
2022-07-29T10:37:35.909Z,46.07
2022-07-29T10:40:44.023Z,46.30
2022-07-29T10:43:23.207Z,45.20
2022-07-29T10:45:57.450Z,45.55
2022-07-29T10:48:24.855Z,45.36
2022-07-29T10:50:57.986Z,45.88
2022-07-29T10:53:25.846Z,46.68
2022-07-29T10:56:00.379Z,46.31
2022-07-29T10:58:27.025Z,45.80
2022-07-29T11:00:55.149Z,45.76
2022-07-29T11:03:52.444Z,46.27
2022-07-29T11:06:26.620Z,46.74
2022-07-29T11:09:34.942Z,45.92
2022-07-29T11:12:04.591Z,46.09
2022-07-29T11:14:56.798Z,45.01
2022-07-29T11:17:26.533Z,45.62
2022-07-29T11:20:32.164Z,45.79
2022-07-29T11:22:59.401Z,46.08
2022-07-29T11:25:42.533Z,45.17
2022-07-29T11:28:22.760Z,45.66
2022-07-29T11:30:54.537Z,44.52
2022-07-29T11:33:54.526Z,44.95
2022-07-29T11:36:19.064Z,44.24
2022-07-29T11:39:36.933Z,43.95
2022-07-29T11:42:32.674Z,44.51
2022-07-29T11:48:27.780Z,43.76
2022-07-29T11:50:48.547Z,44.31
2022-07-29T11:53:16.211Z,43.38
2022-07-29T11:55:51.595Z,42.21
2022-07-29T12:01:17.406Z,42.57
2022-07-29T12:03:45.060Z,42.59
2022-07-29T12:07:02.364Z,42.27
2022-07-29T12:09:08.364Z,43.03
2022-07-29T12:11:41.012Z,42.60
2022-07-29T12:14:08.400Z,42.57
2022-07-29T12:16:38.339Z,42.87
2022-07-29T12:19:05.600Z,41.37
2022-07-29T12:21:53.605Z,42.86
2022-07-29T12:24:23.321Z,46.08
2022-07-29T12:26:55.964Z,46.35
2022-07-29T12:29:34.529Z,45.46
2022-07-29T12:32:02.199Z,45.48
2022-07-29T12:34:30.385Z,46.22
2022-07-29T12:36:57.081Z,45.20
2022-07-29T12:39:27.280Z,46.35
2022-07-29T12:41:54.261Z,45.27
2022-07-29T12:44:48.802Z,44.91
2022-07-29T12:47:16.718Z,43.35
2022-07-29T12:49:43.358Z,43.62
2022-07-29T12:52:33.050Z,43.08
2022-07-29T12:55:00.858Z,39.88
2022-07-29T12:57:28.734Z,39.17
2022-07-29T13:00:12.388Z,38.51
2022-07-29T13:02:40.015Z,38.76
2022-07-29T13:05:09.238Z,38.45
2022-07-29T13:07:54.287Z,38.23
2022-07-29T13:10:24.295Z,38.34
2022-07-29T13:13:07.506Z,38.55
2022-07-29T13:15:35.095Z,39.02
2022-07-29T13:18:02.142Z,39.79
2022-07-29T13:20:32.725Z,39.76
2022-07-29T13:23:02.330Z,40.84
2022-07-29T13:25:33.302Z,42.09
2022-07-29T13:28:00.640Z,43.10
2022-07-29T13:30:27.296Z,42.92
2022-07-29T13:32:54.307Z,43.06
2022-07-29T13:35:21.299Z,42.53
2022-07-29T13:37:48.109Z,42.61
2022-07-29T13:40:15.369Z,43.68
2022-07-29T13:42:42.318Z,43.37
2022-07-29T13:45:10.350Z,43.42
2022-07-29T13:47:37.399Z,43.30
2022-07-29T13:50:06.786Z,43.62
2022-07-29T13:52:34.386Z,44.01
2022-07-29T13:55:01.590Z,43.80
2022-07-29T13:57:28.731Z,44.11
2022-07-29T13:59:55.697Z,44.40
2022-07-29T14:02:25.340Z,44.73
2022-07-29T14:04:52.661Z,44.54
2022-07-29T14:07:19.470Z,44.74
2022-07-29T14:09:46.124Z,44.87
2022-07-29T14:12:12.868Z,44.82
2022-07-29T14:14:39.633Z,45.45
2022-07-29T14:17:07.595Z,45.68
2022-07-29T14:19:39.281Z,45.21
2022-07-29T14:22:08.629Z,45.51
2022-07-29T14:24:37.349Z,45.47
2022-07-29T14:27:05.643Z,45.59
2022-07-29T14:29:37.201Z,45.52
2022-07-29T14:32:11.152Z,44.68
2022-07-29T14:34:38.989Z,46.16
2022-07-29T14:37:06.925Z,46.20
2022-07-29T14:39:42.084Z,46.15
2022-07-29T14:42:14.158Z,46.82
2022-07-29T14:44:42.881Z,46.88
2022-07-29T14:47:12.309Z,47.05
2022-07-29T14:49:38.894Z,46.85
2022-07-29T14:52:05.751Z,47.28
2022-07-29T14:54:32.406Z,47.03
2022-07-29T14:56:59.069Z,47.50
2022-07-29T14:59:27.085Z,47.32
2022-07-29T15:01:53.997Z,46.62
2022-07-29T15:04:21.006Z,46.66
2022-07-29T15:06:48.205Z,46.90
2022-07-29T15:09:15.178Z,47.21
2022-07-29T15:11:42.041Z,46.90
2022-07-29T15:14:08.741Z,47.12
2022-07-29T15:16:43.541Z,46.67
2022-07-29T15:19:10.748Z,47.02
2022-07-29T15:21:41.699Z,47.26
2022-07-29T15:24:18.485Z,46.67
2022-07-29T15:26:45.586Z,47.16
2022-07-29T15:29:12.951Z,46.83
2022-07-29T15:31:39.704Z,46.90
2022-07-29T15:34:07.281Z,46.40
2022-07-29T15:39:21.843Z,46.64
2022-07-29T15:41:48.479Z,46.13
2022-07-29T15:44:15.175Z,44.92
2022-07-29T15:47:01.026Z,44.00
2022-07-29T15:49:47.666Z,43.70
2022-07-29T15:52:19.090Z,43.61
2022-07-29T15:54:52.172Z,43.04
2022-07-29T15:57:18.769Z,43.22
2022-07-29T15:59:45.456Z,40.94
2022-07-29T16:02:12.588Z,39.38
2022-07-29T16:04:39.617Z,39.70
2022-07-29T16:07:06.951Z,39.64
2022-07-29T16:09:33.601Z,39.38
2022-07-29T16:12:00.361Z,39.00
2022-07-29T16:14:28.300Z,39.03
2022-07-29T16:16:55.296Z,39.00
2022-07-29T16:19:22.203Z,39.21
2022-07-29T16:21:48.869Z,38.54
2022-07-29T16:24:15.499Z,38.74
2022-07-29T16:26:42.122Z,38.74
2022-07-29T16:29:08.746Z,38.21
2022-07-29T16:31:35.462Z,38.26
2022-07-29T16:34:02.537Z,38.47
2022-07-29T16:36:29.256Z,38.11
2022-07-29T16:38:55.836Z,37.67
2022-07-29T16:41:22.461Z,37.96
2022-07-29T16:43:49.161Z,37.76
2022-07-29T16:46:18.983Z,37.65
2022-07-29T16:48:47.580Z,37.95
2022-07-29T16:51:15.330Z,38.43
2022-07-29T16:53:42.275Z,38.21
2022-07-29T16:56:11.159Z,38.32
2022-07-29T16:58:43.513Z,38.47
2022-07-29T17:01:10.564Z,38.16
2022-07-29T17:04:00.198Z,38.48
2022-07-29T17:06:28.659Z,37.98
2022-07-29T17:08:56.481Z,38.50
2022-07-29T17:11:23.128Z,38.18
2022-07-29T17:14:10.435Z,38.66
2022-07-29T17:16:37.416Z,38.89
2022-07-29T17:19:04.157Z,38.79
2022-07-29T17:21:30.758Z,38.98
2022-07-29T17:23:59.263Z,39.07
2022-07-29T17:26:28.019Z,38.82
2022-07-29T17:28:55.919Z,39.08
2022-07-29T17:31:23.462Z,39.17
2022-07-29T17:33:50.562Z,39.17
2022-07-29T17:36:29.743Z,39.47
2022-07-29T17:38:59.716Z,39.14
2022-07-29T17:41:26.747Z,38.98
2022-07-29T17:43:54.488Z,39.30
2022-07-29T17:46:24.703Z,39.27
2022-07-29T17:48:51.499Z,39.38
2022-07-29T17:51:18.236Z,39.35
2022-07-29T17:53:44.887Z,39.02
2022-07-29T17:56:11.604Z,39.02
2022-07-29T17:58:39.414Z,38.26
2022-07-29T18:01:06.355Z,38.52
2022-07-29T18:03:33.518Z,38.52
2022-07-29T18:06:00.676Z,38.50
2022-07-29T18:08:28.000Z,38.30
2022-07-29T18:10:54.726Z,38.17
2022-07-29T18:13:21.619Z,38.09
2022-07-29T18:15:48.402Z,38.90
2022-07-29T18:18:15.915Z,39.12
2022-07-29T18:20:43.398Z,38.64
2022-07-29T18:23:10.565Z,38.72
2022-07-29T18:25:37.416Z,38.66
2022-07-29T18:28:04.363Z,39.32
2022-07-29T18:30:34.011Z,39.55
2022-07-29T18:33:20.393Z,39.67
2022-07-29T18:35:49.481Z,39.73
2022-07-29T18:38:16.203Z,40.01
2022-07-29T18:40:43.366Z,39.51
2022-07-29T18:43:10.017Z,39.69
2022-07-29T18:45:36.735Z,39.82
2022-07-29T18:48:08.425Z,39.86
2022-07-29T18:50:40.460Z,40.66
2022-07-29T18:53:07.213Z,40.11
2022-07-29T18:55:33.858Z,40.52
2022-07-29T18:58:00.514Z,40.89
2022-07-29T19:00:27.787Z,41.05
2022-07-29T19:02:54.987Z,41.55
2022-07-29T19:05:23.001Z,41.71
2022-07-29T19:07:49.688Z,42.18
2022-07-29T19:10:16.539Z,42.42
2022-07-29T19:12:43.320Z,42.83
2022-07-29T19:15:10.660Z,42.60
2022-07-29T19:17:37.956Z,42.65
2022-07-29T19:20:05.628Z,42.55
2022-07-29T19:22:34.106Z,42.66
2022-07-29T19:25:00.708Z,43.05
2022-07-29T19:27:27.348Z,43.08
2022-07-29T19:29:59.003Z,42.92
2022-07-29T19:32:26.057Z,43.27
2022-07-29T19:35:11.478Z,43.33
2022-07-29T19:37:38.129Z,43.66
2022-07-29T19:40:06.185Z,43.79
2022-07-29T19:42:32.827Z,44.29
2022-07-29T19:44:59.409Z,44.45
2022-07-29T19:47:26.068Z,44.86
2022-07-29T19:49:52.655Z,45.03
2022-07-29T19:52:19.308Z,45.07
2022-07-29T19:54:46.029Z,45.02
2022-07-29T19:57:12.614Z,45.03
2022-07-29T19:59:40.940Z,45.28
2022-07-29T20:02:10.739Z,45.21
2022-07-29T20:04:37.895Z,45.27
2022-07-29T20:07:05.157Z,45.41
2022-07-29T20:09:31.793Z,45.86
2022-07-29T20:11:58.569Z,45.71
2022-07-29T20:14:25.169Z,45.57
2022-07-29T20:16:53.960Z,45.28
2022-07-29T20:19:20.567Z,45.26
2022-07-29T20:21:47.168Z,45.82
2022-07-29T20:24:13.828Z,45.71
2022-07-29T20:26:40.522Z,45.83
2022-07-29T20:29:07.183Z,45.90
2022-07-29T20:31:34.066Z,46.49
2022-07-29T20:34:01.977Z,46.65
2022-07-29T20:36:28.682Z,46.93
2022-07-29T20:38:56.384Z,47.09
2022-07-29T20:41:23.573Z,47.25
2022-07-29T20:43:50.591Z,47.70
2022-07-29T20:46:18.190Z,48.66
2022-07-29T20:48:46.958Z,49.12
2022-07-29T20:51:14.486Z,50.02
2022-07-29T20:53:41.607Z,50.21
2022-07-29T20:56:08.383Z,50.42
2022-07-29T20:58:36.186Z,50.55
2022-07-29T21:01:03.797Z,51.44
2022-07-29T21:03:30.531Z,50.95
2022-07-29T21:05:57.105Z,51.53
2022-07-29T21:08:24.081Z,51.15
2022-07-29T21:10:50.717Z,51.84
2022-07-29T21:13:18.243Z,51.91
2022-07-29T21:15:48.915Z,51.61
2022-07-29T21:18:27.275Z,51.97
2022-07-29T21:20:54.915Z,51.99
2022-07-29T21:23:21.684Z,52.79
2022-07-29T21:25:48.405Z,52.49
2022-07-29T21:28:27.082Z,52.73
2022-07-29T21:30:55.042Z,53.08
2022-07-29T21:33:22.035Z,53.02
2022-07-29T21:36:26.577Z,52.96
2022-07-29T21:38:36.412Z,53.14
2022-07-29T21:41:04.626Z,53.22
2022-07-29T21:43:31.679Z,52.97
2022-07-29T21:45:59.606Z,52.84
2022-07-29T21:48:28.154Z,52.88
2022-07-29T21:50:54.918Z,52.95
2022-07-29T21:53:22.860Z,52.86
2022-07-29T21:55:54.306Z,52.61
2022-07-29T21:58:22.910Z,52.50
2022-07-29T22:00:50.135Z,52.60
2022-07-29T22:03:16.938Z,53.13
2022-07-29T22:05:44.620Z,53.07
2022-07-29T22:08:11.556Z,53.47
2022-07-29T22:10:38.303Z,53.72
2022-07-29T22:13:04.984Z,53.57
2022-07-29T22:15:32.261Z,52.61
2022-07-29T22:17:59.667Z,53.63
2022-07-29T22:20:26.515Z,52.97
2022-07-29T22:22:53.558Z,53.10
2022-07-29T22:25:20.551Z,52.55
2022-07-29T22:27:47.199Z,52.72
2022-07-29T22:30:14.691Z,53.09
2022-07-29T22:32:41.450Z,53.17
2022-07-29T22:35:08.813Z,53.07
2022-07-29T22:37:35.457Z,53.27
2022-07-29T22:40:02.559Z,53.40
2022-07-29T22:42:30.651Z,52.63
2022-07-29T22:44:57.373Z,52.63
2022-07-29T22:47:46.271Z,52.70
2022-07-29T22:50:11.096Z,53.24
2022-07-29T22:52:37.653Z,53.55
2022-07-29T22:55:05.425Z,53.83
2022-07-29T22:57:32.403Z,54.54
2022-07-29T23:00:01.669Z,53.91
2022-07-29T23:02:29.042Z,54.37
2022-07-29T23:04:55.934Z,54.46
2022-07-29T23:07:23.049Z,54.37
2022-07-29T23:09:49.868Z,53.81
2022-07-29T23:12:16.570Z,54.10
2022-07-29T23:14:43.968Z,54.91
2022-07-29T23:17:10.667Z,55.21
2022-07-29T23:19:37.540Z,54.82
2022-07-29T23:22:04.973Z,53.85
2022-07-29T23:24:31.613Z,54.03
2022-07-29T23:26:58.659Z,54.65
2022-07-29T23:29:26.474Z,54.68
2022-07-29T23:31:53.146Z,55.02
2022-07-29T23:34:19.846Z,55.29
2022-07-29T23:36:46.728Z,55.70
2022-07-29T23:39:13.480Z,55.54
2022-07-29T23:41:40.482Z,55.52
2022-07-29T23:44:07.222Z,55.99
2022-07-29T23:46:34.124Z,56.12
2022-07-29T23:49:00.924Z,56.18
2022-07-29T23:51:29.184Z,56.62
2022-07-29T23:53:56.125Z,56.95
2022-07-29T23:56:23.441Z,57.32
2022-07-29T23:58:50.224Z,57.50
